Barhamsville, Virginia
Current Conditions -  °F | °C
As of 8:15 PM on Tuesday 27 Jan 2015 (Local Time) from KFYJ Reporting Station
Scattered Clouds Scattered Clouds  
Wind Chill: 28°   Ceiling: Unl
Heat Index: 35°   Visibility: 10mi
Dew Point: 23°   Wind: 9mph
Humidity: 61%   Direction: 300°WNW
Pressure: 29.9"   Gusts: NA
Location:  37.45°N, 76.84°W
Report Text: KFYJ 280115Z AUTO 30008KT 10SM SCT110 02/M05 A2990 RMK AO2 T00171052
Loading
Personal Weather Stations






























Interactive Weather Map New forecast layout! Learn more

10-Day Weather Forecast

Advertisements
Track Severe Weather on mobile